Time;durP1;ratioP1;P1;durP2;ratioP2;P2;SDS_P1;SDS_P2;PMS_P1;PMS_P2;Temp;Humidity;BMP_temperature;BMP_pressure;BME280_temperature;BME280_humidity;BME280_pressure;Samples;Min_cycle;Max_cycle;Signal;HPM_P1;HPM_P2
2021/12/31 00:00:11;;;;;;;4.45;2.10;;;;;;;10.49;100.00;96202.28;5107852;28;20752;-77
2021/12/31 00:02:56;;;;;;;4.30;2.10;;;;;;;10.45;100.00;96201.19;5098829;27;20163;-77
2021/12/31 00:05:23;;;;;;;3.28;2.00;;;;;;;10.37;100.00;96204.25;5094750;27;20446;-77
2021/12/31 00:07:48;;;;;;;4.53;2.35;;;;;;;10.33;100.00;96205.78;5092927;28;20047;-77
2021/12/31 00:10:14;;;;;;;3.60;2.00;;;;;;;10.23;100.00;96199.41;5074718;28;20556;-77
2021/12/31 00:12:41;;;;;;;3.70;2.30;;;;;;;10.19;100.00;96198.31;5100015;27;20095;-77
2021/12/31 00:15:07;;;;;;;3.45;1.92;;;;;;;10.12;100.00;96192.44;5098082;28;20044;-77
2021/12/31 00:17:33;;;;;;;3.40;2.00;;;;;;;10.09;100.00;96192.16;5101336;28;20040;-77
2021/12/31 00:20:09;;;;;;;3.35;1.88;;;;;;;10.08;100.00;96201.88;5094237;28;20166;-77
2021/12/31 00:25:12;;;;;;;2.60;1.60;;;;;;;10.51;100.00;96202.00;5103365;27;20040;-77
2021/12/31 00:27:38;;;;;;;3.15;1.48;;;;;;;10.49;100.00;96202.28;5093198;28;20512;-77
2021/12/31 00:30:05;;;;;;;2.08;1.40;;;;;;;10.58;100.00;96208.63;5091607;28;20570;-77
2021/12/31 00:32:30;;;;;;;2.25;1.45;;;;;;;10.75;100.00;96215.63;5101618;27;20040;-77
2021/12/31 00:34:56;;;;;;;3.95;1.30;;;;;;;10.77;100.00;96207.47;5116554;27;20103;-77
2021/12/31 00:37:29;;;;;;;1.55;1.00;;;;;;;10.72;100.00;96195.06;5097925;28;20120;-77
2021/12/31 00:39:55;;;;;;;2.85;1.30;;;;;;;10.67;100.00;96202.91;5121200;27;20047;-77
2021/12/31 00:42:20;;;;;;;1.73;1.02;;;;;;;10.82;100.00;96203.03;5110408;27;20042;-77
2021/12/31 00:44:46;;;;;;;2.45;1.27;;;;;;;10.70;100.00;96207.69;5100956;28;20040;-77
2021/12/31 00:47:11;;;;;;;2.95;1.27;;;;;;;10.58;100.00;96206.00;5092287;28;20046;-77
2021/12/31 00:49:37;;;;;;;2.58;1.13;;;;;;;10.43;100.00;96208.53;5080259;28;20047;-77
2021/12/31 00:52:03;;;;;;;4.93;1.77;;;;;;;10.64;100.00;96212.09;5109360;27;20121;-77
2021/12/31 00:54:28;;;;;;;3.78;1.65;;;;;;;10.76;100.00;96206.69;5112928;27;20039;-77
2021/12/31 00:57:00;;;;;;;4.55;1.30;;;;;;;10.78;100.00;96199.31;5105830;28;20047;-77
2021/12/31 00:59:25;;;;;;;4.05;1.50;;;;;;;10.56;100.00;96208.13;5114933;27;20050;-77
2021/12/31 01:01:51;;;;;;;3.58;1.65;;;;;;;10.53;100.00;96198.09;5083328;28;20040;-77
2021/12/31 01:04:16;;;;;;;3.65;1.23;;;;;;;10.63;100.00;96207.09;5095244;28;20054;-77
2021/12/31 01:06:41;;;;;;;2.03;1.00;;;;;;;10.63;100.00;96207.91;5090727;28;20063;-77
2021/12/31 01:09:07;;;;;;;2.63;1.17;;;;;;;10.79;100.00;96206.19;5088706;28;20051;-77
2021/12/31 01:11:33;;;;;;;1.98;1.10;;;;;;;10.83;100.00;96209.91;5100479;27;20047;-77
2021/12/31 01:14:03;;;;;;;2.97;1.17;;;;;;;10.92;100.00;96205.72;5117418;27;20107;-77
2021/12/31 01:16:37;;;;;;;3.13;1.58;;;;;;;10.87;100.00;96208.31;5097580;28;20048;-77
2021/12/31 01:21:33;;;;;;;3.05;1.65;;;;;;;10.96;100.00;96218.38;5098984;28;20424;-76
2021/12/31 01:24:00;;;;;;;3.53;1.60;;;;;;;10.90;100.00;96214.91;5090743;28;20514;-77
2021/12/31 01:26:26;;;;;;;2.50;1.30;;;;;;;10.87;100.00;96218.06;5102037;28;20547;-77
2021/12/31 01:28:52;;;;;;;1.33;0.95;;;;;;;10.87;100.00;96218.84;5107923;28;20040;-77
2021/12/31 01:31:17;;;;;;;2.15;1.13;;;;;;;10.88;100.00;96220.44;5100815;28;20043;-77
2021/12/31 01:33:43;;;;;;;2.10;1.27;;;;;;;10.90;100.00;96213.09;5125950;27;20059;-77
2021/12/31 01:36:09;;;;;;;2.40;1.40;;;;;;;10.86;100.00;96209.38;5114366;27;20061;-77
2021/12/31 01:38:35;;;;;;;2.38;1.50;;;;;;;10.81;100.00;96203.28;5105025;27;20063;-77
2021/12/31 01:41:02;;;;;;;1.92;1.20;;;;;;;10.89;100.00;96205.47;5103312;28;20505;-76
2021/12/31 01:43:28;;;;;;;3.63;1.30;;;;;;;10.86;100.00;96212.00;5112282;28;20036;-77
2021/12/31 01:45:56;;;;;;;4.90;1.50;;;;;;;10.70;100.00;96218.19;5095054;28;20047;-77
2021/12/31 01:48:33;;;;;;;2.90;1.25;;;;;;;10.79;100.00;96221.97;5113095;28;20047;-77
2021/12/31 01:50:59;;;;;;;1.58;1.20;;;;;;;10.84;100.00;96227.25;5099023;28;20048;-77
2021/12/31 01:53:26;;;;;;;2.58;1.42;;;;;;;10.80;100.00;96213.00;5112157;27;20093;-77
2021/12/31 01:55:56;;;;;;;4.50;1.80;;;;;;;10.91;100.00;96214.66;5110793;27;20040;-77
2021/12/31 01:58:24;;;;;;;7.90;2.08;;;;;;;10.97;100.00;96223.41;5099271;28;20043;-77
2021/12/31 02:00:50;;;;;;;4.43;2.40;;;;;;;10.85;100.00;96215.69;5111962;27;20043;-77
2021/12/31 02:03:22;;;;;;;5.90;2.50;;;;;;;10.79;100.00;96210.63;5109135;27;20043;-77
2021/12/31 02:05:48;;;;;;;5.70;2.15;;;;;;;10.78;100.00;96215.13;5078335;28;20134;-77
2021/12/31 02:08:16;;;;;;;4.63;2.10;;;;;;;10.71;100.00;96217.16;5091532;28;20044;-77
2021/12/31 02:10:41;;;;;;;7.10;3.15;;;;;;;10.66;100.00;96209.22;5100774;28;20070;-77
2021/12/31 02:13:08;;;;;;;5.75;2.22;;;;;;;10.55;100.00;96214.41;5112442;28;20048;-77
2021/12/31 02:15:34;;;;;;;4.68;2.50;;;;;;;10.48;100.00;96205.94;5108776;27;20040;-77
2021/12/31 02:18:01;;;;;;;4.22;2.17;;;;;;;10.36;100.00;96218.47;5126449;27;20596;-77
2021/12/31 02:20:45;;;;;;;4.07;2.00;;;;;;;10.34;100.00;96220.56;5113961;27;20089;-77
2021/12/31 02:23:14;;;;;;;6.25;2.20;;;;;;;10.49;100.00;96231.22;5117076;27;20760;-77
2021/12/31 02:25:40;;;;;;;5.15;2.50;;;;;;;10.45;100.00;96232.75;5103273;28;20051;-77
2021/12/31 02:28:07;;;;;;;3.55;1.95;;;;;;;10.26;100.00;96228.84;5091916;28;20044;-77
2021/12/31 02:30:32;;;;;;;4.95;2.55;;;;;;;10.37;100.00;96227.94;5089597;28;20044;-77
2021/12/31 02:32:59;;;;;;;6.15;3.00;;;;;;;10.50;100.00;96230.19;5112144;28;20121;-77
2021/12/31 02:35:25;;;;;;;5.55;2.67;;;;;;;10.57;100.00;96225.50;5104592;27;20075;-76
2021/12/31 02:37:50;;;;;;;6.80;3.10;;;;;;;10.56;100.00;96225.75;5101342;28;20076;-77
2021/12/31 02:40:18;;;;;;;4.68;2.60;;;;;;;10.57;100.00;96225.50;5110463;27;20036;-77
2021/12/31 02:42:44;;;;;;;3.78;2.03;;;;;;;10.58;100.00;96221.03;5123364;27;20050;-77
2021/12/31 02:45:11;;;;;;;3.92;1.95;;;;;;;10.61;100.00;96225.00;5104318;27;20408;-77
2021/12/31 02:47:43;;;;;;;3.90;2.10;;;;;;;10.51;100.00;96221.22;5111302;27;20039;-77
2021/12/31 02:50:11;;;;;;;4.55;1.98;;;;;;;10.48;100.00;96227.00;5093841;28;20579;-77
2021/12/31 02:52:37;;;;;;;3.50;1.85;;;;;;;10.46;100.00;96213.31;5102921;28;20565;-77
2021/12/31 02:55:03;;;;;;;4.65;1.90;;;;;;;10.44;100.00;96220.63;5103459;27;20087;-77
2021/12/31 02:57:29;;;;;;;3.38;1.50;;;;;;;10.50;100.00;96219.66;5094676;27;20040;-77
2021/12/31 02:59:54;;;;;;;2.17;1.50;;;;;;;10.47;100.00;96220.13;5093710;28;20114;-77
2021/12/31 03:02:24;;;;;;;2.92;1.63;;;;;;;10.45;100.00;96211.72;5110392;28;20044;-77
2021/12/31 03:04:52;;;;;;;2.63;1.35;;;;;;;10.49;100.00;96218.06;5108754;27;20040;-77
2021/12/31 03:07:18;;;;;;;2.10;1.45;;;;;;;10.44;100.00;96215.38;5114842;27;20115;-77
2021/12/31 03:09:47;;;;;;;1.48;1.20;;;;;;;10.45;100.00;96211.72;5091794;28;20047;-77
2021/12/31 03:12:17;;;;;;;2.03;1.42;;;;;;;10.45;100.00;96211.72;5100530;28;20043;-77
2021/12/31 03:14:44;;;;;;;2.72;1.40;;;;;;;10.44;100.00;96204.84;5099784;28;20039;-77
2021/12/31 03:17:12;;;;;;;2.10;1.35;;;;;;;10.43;100.00;96198.03;5115867;27;20046;-77
2021/12/31 03:19:38;;;;;;;2.20;1.38;;;;;;;10.41;100.00;96194.81;5117468;27;20448;-77
2021/12/31 03:22:04;;;;;;;2.42;1.55;;;;;;;10.39;100.00;96196.94;5100119;28;20044;-77
2021/12/31 03:24:30;;;;;;;2.42;1.60;;;;;;;10.38;100.00;96200.59;5102888;27;20040;-77
2021/12/31 03:26:56;;;;;;;2.22;1.50;;;;;;;10.28;100.00;96196.00;5114123;27;20054;-77
2021/12/31 03:29:22;;;;;;;2.05;1.35;;;;;;;10.34;100.00;96194.25;5091221;28;20044;-77
2021/12/31 03:31:48;;;;;;;2.65;1.70;;;;;;;10.32;100.00;96199.72;5104951;28;20525;-76
2021/12/31 03:34:16;;;;;;;4.00;1.70;;;;;;;10.18;100.00;96196.69;5105709;28;20044;-77
2021/12/31 03:36:42;;;;;;;1.88;1.50;;;;;;;10.31;100.00;96194.72;5092177;27;20067;-77
2021/12/31 03:39:09;;;;;;;3.65;1.77;;;;;;;10.30;100.00;96195.75;5095748;28;20048;-77
2021/12/31 03:41:36;;;;;;;2.85;1.65;;;;;;;10.35;100.00;96185.31;5106914;28;20113;-77
2021/12/31 03:44:02;;;;;;;2.60;1.80;;;;;;;10.34;100.00;96188.97;5107484;28;20424;-76
2021/12/31 03:46:28;;;;;;;3.30;1.60;;;;;;;10.35;100.00;96178.22;5109665;27;20116;-77
2021/12/31 03:48:53;;;;;;;2.72;1.70;;;;;;;10.29;100.00;96181.03;5109712;28;20401;-77
2021/12/31 03:51:19;;;;;;;3.13;1.60;;;;;;;10.30;100.00;96182.59;5110229;28;20502;-77
2021/12/31 03:53:44;;;;;;;2.45;1.75;;;;;;;10.29;100.00;96188.94;5105849;28;20509;-77
2021/12/31 03:56:10;;;;;;;4.10;1.65;;;;;;;10.21;100.00;96180.44;5096591;27;20047;-77
2021/12/31 03:58:35;;;;;;;2.85;1.58;;;;;;;10.21;100.00;96185.72;5111041;28;20071;-77
2021/12/31 04:01:01;;;;;;;2.55;1.80;;;;;;;10.23;100.00;96180.97;5104577;28;20051;-77
2021/12/31 04:03:26;;;;;;;2.72;1.75;;;;;;;10.23;100.00;96170.47;5096831;27;20035;-76
2021/12/31 04:05:53;;;;;;;2.25;1.50;;;;;;;10.22;100.00;96182.00;5111012;27;20507;-76
2021/12/31 04:08:19;;;;;;;2.63;1.70;;;;;;;10.15;100.00;96168.28;5106489;27;20044;-77
2021/12/31 04:10:45;;;;;;;3.40;1.77;;;;;;;10.13;100.00;96167.75;5110014;28;20043;-77
2021/12/31 04:13:10;;;;;;;2.67;1.75;;;;;;;10.15;100.00;96176.16;5095747;28;20061;-77
2021/12/31 04:15:36;;;;;;;2.47;1.70;;;;;;;10.14;100.00;96168.53;5117943;27;20086;-79
2021/12/31 04:18:01;;;;;;;2.72;1.60;;;;;;;10.07;100.00;96168.75;5108135;27;20055;-77
2021/12/31 04:20:39;;;;;;;2.95;1.70;;;;;;;10.13;100.00;96173.00;5098558;28;20093;-77
2021/12/31 04:23:14;;;;;;;4.30;1.90;;;;;;;10.15;100.00;96170.13;5103391;28;20489;-77
2021/12/31 04:25:40;;;;;;;;;;;;;;;10.14;100.00;96165.91;5100927;27;20114;-77
2021/12/31 04:28:06;;;;;;;2.85;1.98;;;;;;;10.10;100.00;96168.25;5102854;28;19934;-77
2021/12/31 04:30:32;;;;;;;2.95;1.75;;;;;;;10.04;100.00;96163.97;5109089;28;20051;-77
2021/12/31 04:32:59;;;;;;;1.92;1.52;;;;;;;10.05;100.00;96166.34;5111530;28;20052;-77
2021/12/31 04:35:25;;;;;;;2.15;1.50;;;;;;;10.04;100.00;96153.44;5117261;27;20105;-77
2021/12/31 04:37:50;;;;;;;2.30;1.60;;;;;;;10.03;100.00;96155.28;5087298;28;20048;-77
2021/12/31 04:40:16;;;;;;;3.58;1.60;;;;;;;10.02;100.00;96160.81;5097271;28;20390;-77
2021/12/31 04:42:43;;;;;;;4.30;1.77;;;;;;;9.99;100.00;96151.56;5093091;28;20107;-77
2021/12/31 04:45:11;;;;;;;3.20;1.88;;;;;;;9.98;100.00;96155.22;5106689;27;20040;-77
2021/12/31 04:47:37;;;;;;;2.85;1.80;;;;;;;10.00;100.00;96147.13;5107708;28;20055;-77
2021/12/31 04:50:03;;;;;;;3.35;2.00;;;;;;;9.97;100.00;96147.59;5100980;28;20118;-77
2021/12/31 04:52:28;;;;;;;2.97;1.70;;;;;;;9.93;100.00;96151.75;5107510;28;20140;-77
2021/12/31 04:54:54;;;;;;;2.67;1.70;;;;;;;9.89;100.00;96152.25;5095726;28;20047;-77
2021/12/31 04:57:23;;;;;;;4.53;1.95;;;;;;;9.80;100.00;96147.72;5090193;28;20074;-78
2021/12/31 04:59:48;;;;;;;3.75;1.80;;;;;;;9.75;100.00;96150.28;5094219;28;20047;-77
2021/12/31 05:02:14;;;;;;;2.58;1.75;;;;;;;9.74;100.00;96149.50;5100817;28;20598;-78
2021/12/31 05:04:40;;;;;;;2.67;1.63;;;;;;;9.66;100.00;96148.09;5108042;28;20092;-77
2021/12/31 05:07:05;;;;;;;3.17;1.52;;;;;;;9.62;100.00;96146.22;5106245;28;20046;-77
2021/12/31 05:09:31;;;;;;;4.03;1.73;;;;;;;9.53;100.00;96151.13;5095761;28;20078;-77
2021/12/31 05:11:56;;;;;;;2.28;1.67;;;;;;;9.46;100.00;96148.69;5108815;28;20141;-77
2021/12/31 05:14:22;;;;;;;2.88;1.50;;;;;;;9.44;100.00;96158.66;5106978;28;20036;-77
2021/12/31 05:16:48;;;;;;;3.45;1.70;;;;;;;9.30;100.00;96154.81;5094241;28;20460;-77
2021/12/31 05:19:13;;;;;;;2.90;1.60;;;;;;;9.17;100.00;96146.25;5113640;27;20043;-77
2021/12/31 05:21:39;;;;;;;2.38;1.65;;;;;;;9.14;100.00;96145.97;5101354;27;20047;-77
2021/12/31 05:24:05;;;;;;;2.67;1.55;;;;;;;9.08;100.00;96152.97;5110371;28;20051;-77
2021/12/31 05:26:31;;;;;;;3.15;1.60;;;;;;;9.02;100.00;96143.44;5101591;28;20123;-77
2021/12/31 05:28:56;;;;;;;2.15;1.60;;;;;;;8.87;100.00;96146.66;5089598;28;20382;-77
2021/12/31 05:31:22;;;;;;;1.88;1.40;;;;;;;8.61;100.00;96145.53;5103624;28;20047;-78
2021/12/31 05:33:47;;;;;;;4.25;1.50;;;;;;;8.49;100.00;96151.66;5096490;28;20040;-77
2021/12/31 05:36:13;;;;;;;2.22;1.50;;;;;;;8.39;100.00;96155.91;5120724;28;20040;-78
2021/12/31 05:38:39;;;;;;;2.47;1.50;;;;;;;8.29;100.00;96156.56;5105054;28;20093;-77
2021/12/31 05:41:05;;;;;;;4.25;1.70;;;;;;;8.29;100.00;96151.31;5114680;28;20390;-77
2021/12/31 05:43:31;;;;;;;2.42;1.52;;;;;;;7.95;100.00;96154.69;5113926;28;20051;-77
2021/12/31 05:45:56;;;;;;;2.65;1.70;;;;;;;7.84;100.00;96149.50;5080052;28;20036;-77
2021/12/31 05:48:23;;;;;;;2.53;1.60;;;;;;;7.88;100.00;96148.03;5105965;28;20505;-77
2021/12/31 05:50:49;;;;;;;2.42;1.63;;;;;;;8.09;100.00;96149.94;5105234;28;20047;-78
2021/12/31 05:53:14;;;;;;;3.65;1.70;;;;;;;8.44;100.00;96148.94;5099847;28;22204;-78
2021/12/31 05:55:40;;;;;;;2.90;1.60;;;;;;;8.46;100.00;96146.06;5096800;28;20842;-77
2021/12/31 05:58:06;;;;;;;2.10;1.48;;;;;;;8.32;100.00;96150.84;5089383;28;20040;-77
2021/12/31 06:00:31;;;;;;;2.20;1.45;;;;;;;8.37;100.00;96148.28;5090963;28;20040;-77
2021/12/31 06:02:57;;;;;;;2.65;1.50;;;;;;;8.61;100.00;96142.91;5102208;28;20497;-77
2021/12/31 06:05:25;;;;;;;3.15;1.50;;;;;;;8.73;100.00;96135.69;5100945;28;20040;-77
2021/12/31 06:07:51;;;;;;;1.65;1.33;;;;;;;8.83;100.00;96141.13;5102960;28;20048;-77
2021/12/31 06:10:17;;;;;;;1.70;1.40;;;;;;;8.87;100.00;96145.88;5102418;28;20139;-77
2021/12/31 06:12:43;;;;;;;2.38;1.42;;;;;;;8.94;100.00;96144.66;5098000;28;20110;-77
2021/12/31 06:15:10;;;;;;;2.40;1.38;;;;;;;8.96;100.00;96149.66;5104937;28;20122;-77
2021/12/31 06:17:38;;;;;;;2.88;1.35;;;;;;;8.98;100.00;96144.97;5108265;28;20067;-77
2021/12/31 06:20:05;;;;;;;3.42;1.50;;;;;;;8.96;100.00;96141.78;5111894;28;20051;-77
2021/12/31 06:22:31;;;;;;;2.47;1.48;;;;;;;8.89;100.00;96135.91;5103157;28;20039;-77
2021/12/31 06:24:57;;;;;;;2.90;1.58;;;;;;;8.97;100.00;96143.38;5096732;28;20093;-77
2021/12/31 06:27:23;;;;;;;3.80;1.40;;;;;;;8.99;100.00;96149.16;5104488;27;20489;-77
2021/12/31 06:29:48;;;;;;;2.15;1.45;;;;;;;9.01;100.00;96152.34;5114950;27;20036;-78
2021/12/31 06:32:14;;;;;;;2.05;1.35;;;;;;;8.98;100.00;96163.34;5109240;27;20500;-77
2021/12/31 06:34:39;;;;;;;3.78;1.48;;;;;;;8.75;100.00;96149.41;5086369;28;20081;-77
2021/12/31 06:37:05;;;;;;;4.15;1.60;;;;;;;8.78;100.00;96154.16;5111750;28;20459;-77
2021/12/31 06:39:31;;;;;;;2.50;1.60;;;;;;;8.76;100.00;96148.34;5095798;28;20043;-78
2021/12/31 06:41:56;;;;;;;2.38;1.52;;;;;;;8.78;100.00;96164.66;5107832;28;20047;-77
2021/12/31 06:44:22;;;;;;;3.55;1.50;;;;;;;8.77;100.00;96164.91;5105020;28;20036;-77
2021/12/31 06:46:47;;;;;;;2.85;1.58;;;;;;;8.74;100.00;96163.53;5109185;27;20091;-78
2021/12/31 06:49:13;;;;;;;3.47;1.60;;;;;;;8.79;100.00;96165.44;5117784;27;20044;-77
2021/12/31 06:51:39;;;;;;;2.33;1.40;;;;;;;8.75;100.00;96170.38;5113896;27;20121;-77
2021/12/31 06:54:04;;;;;;;3.42;1.33;;;;;;;8.69;100.00;96171.31;5115043;27;20075;-77
2021/12/31 06:56:30;;;;;;;4.95;1.60;;;;;;;8.67;100.00;96168.16;5092203;28;22322;-77
2021/12/31 06:58:55;;;;;;;2.63;1.45;;;;;;;8.39;100.00;96182.13;5097365;28;20036;-77
2021/12/31 07:01:21;;;;;;;2.58;1.50;;;;;;;8.29;100.00;96177.53;5107163;28;20479;-77
2021/12/31 07:03:47;;;;;;;3.38;1.50;;;;;;;8.30;100.00;96174.69;5095519;28;20113;-77
2021/12/31 07:06:13;;;;;;;3.92;1.50;;;;;;;8.29;100.00;96172.31;5112495;27;20046;-77
2021/12/31 07:08:39;;;;;;;2.90;1.70;;;;;;;8.26;100.00;96162.25;5110355;27;20044;-78
2021/12/31 07:11:05;;;;;;;3.92;1.65;;;;;;;8.37;100.00;96169.25;5104850;28;20044;-77
2021/12/31 07:13:30;;;;;;;2.67;1.60;;;;;;;8.31;100.00;96159.72;5091438;28;20049;-77
2021/12/31 07:15:56;;;;;;;3.15;1.60;;;;;;;8.27;100.00;96164.66;5102502;28;20104;-77
2021/12/31 07:18:23;;;;;;;2.97;1.40;;;;;;;8.19;100.00;96167.69;5093888;28;20397;-77
2021/12/31 07:20:49;;;;;;;3.03;1.77;;;;;;;7.98;100.00;96156.06;5106126;28;20040;-77
2021/12/31 07:23:17;;;;;;;3.00;1.50;;;;;;;7.62;100.00;96158.84;5107772;28;20036;-77
2021/12/31 07:25:43;;;;;;;5.20;1.48;;;;;;;7.51;100.00;96156.25;5116236;27;20044;-77
2021/12/31 07:28:10;;;;;;;2.33;1.40;;;;;;;7.23;100.00;96176.16;5105035;28;20055;-77
2021/12/31 07:30:37;;;;;;;2.55;1.65;;;;;;;7.33;100.00;96160.66;5109203;27;20054;-77
2021/12/31 07:33:02;;;;;;;3.85;1.83;;;;;;;7.08;100.00;96166.97;5096517;28;20054;-77
2021/12/31 07:35:29;;;;;;;3.17;1.60;;;;;;;7.12;100.00;96169.91;5095438;28;20040;-77
2021/12/31 07:37:56;;;;;;;2.15;1.33;;;;;;;7.37;100.00;96172.25;5100701;27;20498;-77
2021/12/31 07:40:37;;;;;;;2.22;1.60;;;;;;;7.44;100.00;96172.91;5105021;27;20483;-77
2021/12/31 07:43:03;;;;;;;2.58;1.55;;;;;;;7.39;100.00;96170.19;5107552;28;20097;-77
2021/12/31 07:45:28;;;;;;;2.15;1.58;;;;;;;7.63;100.00;96175.38;5084326;27;20040;-77
2021/12/31 07:47:54;;;;;;;3.53;1.60;;;;;;;7.71;100.00;96167.09;5114098;27;20039;-77
2021/12/31 07:50:19;;;;;;;2.85;1.45;;;;;;;7.83;100.00;96164.47;5121930;27;20058;-77
2021/12/31 07:52:45;;;;;;;2.40;1.60;;;;;;;7.80;100.00;96155.22;5109078;28;20050;-77
2021/12/31 07:55:12;;;;;;;2.47;1.60;;;;;;;7.82;100.00;96162.06;5102407;27;20044;-77
2021/12/31 07:57:38;;;;;;;1.90;1.40;;;;;;;7.83;100.00;96168.88;5108826;27;20459;-77
2021/12/31 08:00:05;;;;;;;2.50;1.50;;;;;;;7.85;100.00;96162.38;5120020;27;20442;-77
2021/12/31 08:02:30;;;;;;;1.98;1.30;;;;;;;7.83;100.00;96163.66;5108954;28;20036;-77
2021/12/31 08:04:56;;;;;;;3.42;1.60;;;;;;;7.77;100.00;96165.38;5108299;28;20185;-77
2021/12/31 08:07:21;;;;;;;2.75;1.67;;;;;;;7.70;100.00;96169.97;5108464;27;20039;-77
2021/12/31 08:09:47;;;;;;;4.78;1.77;;;;;;;7.71;100.00;96177.59;5080292;28;20056;-77
2021/12/31 08:12:12;;;;;;;3.05;1.50;;;;;;;7.62;100.00;96184.25;5086689;28;20047;-77
2021/12/31 08:14:38;;;;;;;2.22;1.55;;;;;;;7.75;100.00;96183.94;5101238;28;20040;-77
2021/12/31 08:17:03;;;;;;;2.58;1.52;;;;;;;7.68;100.00;96193.78;5103017;28;20416;-77
2021/12/31 08:19:29;;;;;;;2.28;1.60;;;;;;;7.43;100.00;96192.28;5105477;27;20032;-78
2021/12/31 08:21:54;;;;;;;3.35;1.60;;;;;;;7.36;100.00;96191.59;5099184;27;20040;-77
2021/12/31 08:24:20;;;;;;;2.30;1.50;;;;;;;7.27;100.00;96198.25;5106364;28;20043;-77
2021/12/31 08:26:45;;;;;;;3.00;1.50;;;;;;;7.26;100.00;96196.63;5106936;28;20039;-77
2021/12/31 08:29:12;;;;;;;2.80;1.70;;;;;;;7.34;100.00;96193.66;5111195;27;20528;-78
2021/12/31 08:31:40;;;;;;;3.17;1.83;;;;;;;7.71;100.00;96198.53;5100610;28;20493;-77
2021/12/31 08:34:09;;;;;;;3.33;1.70;;;;;;;8.01;100.00;96197.50;5071747;28;20048;-78
2021/12/31 08:36:35;;;;;;;4.45;1.70;;;;;;;8.05;100.00;96193.41;5083575;28;20451;-77
2021/12/31 08:39:02;;;;;;;2.55;1.60;;;;;;;8.51;100.00;96206.50;5104485;27;20043;-78
2021/12/31 08:41:28;;;;;;;5.07;1.80;;;;;;;8.78;100.00;96201.41;5105937;27;20070;-77
2021/12/31 08:43:53;;;;;;;4.60;1.65;;;;;;;8.93;100.00;96192.94;5100486;28;20497;-77
2021/12/31 08:46:19;;;;;;;2.95;1.50;;;;;;;9.11;99.85;96193.72;5107445;27;20494;-77
2021/12/31 08:48:44;;;;;;;1.80;1.30;;;;;;;9.16;99.11;96186.66;5097142;27;20561;-77
2021/12/31 08:51:10;;;;;;;2.15;1.40;;;;;;;9.19;100.00;96180.97;5074641;28;20123;-77
2021/12/31 08:53:35;;;;;;;3.83;1.65;;;;;;;9.09;100.00;96186.06;5102554;28;20104;-78
2021/12/31 08:56:01;;;;;;;2.63;1.50;;;;;;;9.12;100.00;96193.47;5090575;28;20491;-77
2021/12/31 08:58:26;;;;;;;3.40;1.60;;;;;;;9.05;100.00;96184.97;5097143;27;20116;-77
2021/12/31 09:00:52;;;;;;;3.60;1.60;;;;;;;9.07;100.00;96190.75;5114447;27;20097;-77
2021/12/31 09:03:18;;;;;;;3.22;1.70;;;;;;;9.09;100.00;96180.81;5095541;28;20040;-77
2021/12/31 09:05:43;;;;;;;3.17;1.48;;;;;;;9.13;100.00;96175.88;5106323;27;20046;-78
2021/12/31 09:08:09;;;;;;;3.95;1.70;;;;;;;9.23;100.00;96180.47;5109341;27;20047;-78
2021/12/31 09:10:34;;;;;;;3.28;1.88;;;;;;;9.45;99.94;96172.56;5100877;28;20119;-76
2021/12/31 09:13:00;;;;;;;2.40;1.40;;;;;;;9.42;100.00;96158.09;5096058;28;20035;-77
2021/12/31 09:15:25;;;;;;;3.58;1.60;;;;;;;9.42;100.00;96160.72;5092397;27;20043;-76
2021/12/31 09:17:51;;;;;;;3.13;1.63;;;;;;;9.36;100.00;96159.06;5095993;28;20040;-76
2021/12/31 09:20:17;;;;;;;2.25;1.52;;;;;;;9.79;99.89;96162.69;5075173;28;20044;-76
2021/12/31 09:22:43;;;;;;;2.55;1.52;;;;;;;9.89;98.39;96164.63;5101067;28;20046;-76
2021/12/31 09:25:09;;;;;;;3.33;1.60;;;;;;;9.97;99.57;96169.44;5097816;28;20039;-76
2021/12/31 09:27:34;;;;;;;13.35;1.67;;;;;;;10.01;97.95;96175.81;5102822;28;20507;-80
2021/12/31 09:30:00;;;;;;;1.88;1.30;;;;;;;10.27;96.02;96175.22;5089083;28;20073;-78
2021/12/31 09:32:26;;;;;;;3.42;1.25;;;;;;;10.15;98.79;96181.44;5097358;28;20173;-77
2021/12/31 09:34:51;;;;;;;2.10;1.50;;;;;;;10.33;96.44;96172.38;5088899;28;20097;-76
2021/12/31 09:37:18;;;;;;;8.30;1.70;;;;;;;10.70;93.88;96176.09;5094718;28;20051;-77
2021/12/31 09:39:44;;;;;;;1.90;1.40;;;;;;;10.94;92.84;96165.19;5089987;28;20035;-78
2021/12/31 09:42:10;;;;;;;4.15;1.73;;;;;;;11.06;92.56;96168.41;5093408;28;20161;-77
2021/12/31 09:44:37;;;;;;;1.38;1.10;;;;;;;11.32;92.79;96165.88;5101822;28;20661;-76
2021/12/31 09:47:09;;;;;;;2.35;1.40;;;;;;;11.87;88.39;96164.47;5102348;28;20040;-80
2021/12/31 09:49:39;;;;;;;2.78;1.73;;;;;;;13.22;82.28;96163.34;5085374;28;20509;-75
2021/12/31 09:52:08;;;;;;;1.90;1.50;;;;;;;14.30;76.42;96170.72;5086039;28;20040;-77
2021/12/31 09:54:33;;;;;;;1.95;1.40;;;;;;;15.01;74.74;96168.53;5101823;28;20564;-77
2021/12/31 09:57:00;;;;;;;1.85;1.30;;;;;;;15.68;71.59;96165.06;5095838;28;20035;-75
2021/12/31 09:59:27;;;;;;;2.75;1.40;;;;;;;16.05;68.77;96160.88;5112947;28;20497;-76
2021/12/31 10:01:53;;;;;;;1.30;1.20;;;;;;;16.26;68.19;96163.22;5107768;28;20116;-75
2021/12/31 10:04:19;;;;;;;1.30;1.20;;;;;;;16.25;68.27;96167.75;5109583;28;20045;-75
2021/12/31 10:07:04;;;;;;;2.85;1.60;;;;;;;16.52;64.32;96165.47;5097775;28;20047;-75
2021/12/31 10:09:29;;;;;;;4.15;1.42;;;;;;;17.02;64.33;96165.69;5105664;28;20051;-74
2021/12/31 10:11:57;;;;;;;3.80;1.70;;;;;;;16.39;65.58;96167.00;5093078;28;20065;-76
2021/12/31 10:14:33;;;;;;;2.50;1.40;;;;;;;17.39;62.53;96155.16;5111189;28;20054;-77
2021/12/31 10:16:59;;;;;;;2.17;1.60;;;;;;;17.32;62.98;96160.88;5106256;28;20553;-78
2021/12/31 10:19:24;;;;;;;2.47;1.52;;;;;;;18.34;61.27;96168.53;5104279;28;20043;-77
2021/12/31 10:21:54;;;;;;;2.65;1.30;;;;;;;18.05;59.05;96171.63;5103397;28;20623;-76
2021/12/31 10:24:35;;;;;;;2.42;1.52;;;;;;;17.25;60.76;96171.13;5108894;28;20036;-74
2021/12/31 10:27:02;;;;;;;1.40;1.30;;;;;;;17.46;61.18;96161.66;5102409;28;20044;-76
2021/12/31 10:29:28;;;;;;;3.03;1.40;;;;;;;18.63;56.85;96158.53;5109688;28;20397;-74
2021/12/31 10:31:54;;;;;;;1.45;1.23;;;;;;;18.65;56.70;96151.03;5102589;28;20059;-76
2021/12/31 10:34:33;;;;;;;4.75;2.95;;;;;;;18.29;57.57;96146.59;5111282;28;20074;-75
2021/12/31 10:37:00;;;;;;;3.63;1.70;;;;;;;18.36;56.99;96133.63;5091584;28;20043;-74
2021/12/31 10:39:29;;;;;;;2.40;1.60;;;;;;;18.10;57.88;96142.22;5094881;28;20055;-76
2021/12/31 10:42:09;;;;;;;7.18;1.42;;;;;;;18.90;56.41;96140.84;5096683;28;20113;-75
2021/12/31 10:44:52;;;;;;;2.95;1.40;;;;;;;19.09;55.92;96120.03;5102422;28;20051;-75
2021/12/31 10:47:18;;;;;;;1.67;1.30;;;;;;;19.39;53.71;96125.59;5101567;28;20463;-76
2021/12/31 10:50:04;;;;;;;1.90;1.40;;;;;;;19.08;53.86;96118.47;5094160;28;20127;-74
2021/12/31 10:52:44;;;;;;;1.33;1.20;;;;;;;18.52;56.04;96113.50;5084642;28;20056;-74
2021/12/31 10:55:27;;;;;;;2.75;1.40;;;;;;;19.25;53.02;96108.94;5109238;28;20389;-74
2021/12/31 10:57:57;;;;;;;2.20;1.20;;;;;;;18.82;55.02;96103.13;5100866;28;20067;-76
2021/12/31 11:00:28;;;;;;;2.72;1.30;;;;;;;19.14;54.67;96097.78;5096197;28;20492;-77
2021/12/31 11:02:56;;;;;;;1.85;1.20;;;;;;;19.99;50.67;96093.97;5110771;28;20071;-76
2021/12/31 11:05:23;;;;;;;2.60;1.27;;;;;;;19.97;53.45;96096.97;5107179;28;20516;-77
2021/12/31 11:07:50;;;;;;;0.90;0.90;;;;;;;19.65;52.31;96100.84;5108148;28;20051;-77
2021/12/31 11:10:16;;;;;;;1.15;1.02;;;;;;;20.21;51.40;96091.13;5075523;28;20044;-77
2021/12/31 11:12:46;;;;;;;2.38;0.90;;;;;;;20.40;51.73;96092.63;5096286;28;20161;-77
2021/12/31 11:15:13;;;;;;;2.17;1.30;;;;;;;20.54;50.51;96087.09;5095552;28;20101;-78
2021/12/31 11:17:39;;;;;;;2.08;1.10;;;;;;;21.44;47.71;96087.97;5100932;27;20115;-79
2021/12/31 11:20:06;;;;;;;1.40;1.02;;;;;;;21.20;47.53;96091.25;5101304;27;20118;-78
2021/12/31 11:22:32;;;;;;;1.27;1.10;;;;;;;21.24;47.18;96082.25;5108757;28;20561;-75
2021/12/31 11:25:19;;;;;;;1.20;1.10;;;;;;;20.75;47.63;96087.22;5103548;28;20498;-78
2021/12/31 11:27:51;;;;;;;1.00;1.00;;;;;;;20.06;48.83;96067.56;5108865;27;20039;-76
2021/12/31 11:30:30;;;;;;;1.20;1.05;;;;;;;19.98;49.03;96071.03;5119989;27;20458;-77
2021/12/31 11:32:59;;;;;;;1.02;1.02;;;;;;;20.48;50.21;96067.78;5097070;27;20489;-78
2021/12/31 11:35:36;;;;;;;3.85;1.25;;;;;;;21.55;47.74;96064.28;5111213;27;20047;-77